sensor_id;sensor_type;location;lat;lon;timestamp;pressure;altitude;pressure_sealevel;temperature;humidity
21273;BME280;36726;52.328;10.552;2023-01-29T00:02:06;101798.50;;;1.54;80.90
21273;BME280;36726;52.328;10.552;2023-01-29T00:04:32;101784.66;;;1.55;81.17
21273;BME280;36726;52.328;10.552;2023-01-29T00:06:59;101786.38;;;1.55;81.03
21273;BME280;36726;52.328;10.552;2023-01-29T00:09:27;101785.38;;;1.53;81.05
21273;BME280;36726;52.328;10.552;2023-01-29T00:11:53;101781.75;;;1.51;81.09
21273;BME280;36726;52.328;10.552;2023-01-29T00:14:20;101782.44;;;1.48;81.21
21273;BME280;36726;52.328;10.552;2023-01-29T00:16:46;101775.31;;;1.46;80.85
21273;BME280;36726;52.328;10.552;2023-01-29T00:19:13;101769.19;;;1.45;81.11
21273;BME280;36726;52.328;10.552;2023-01-29T00:21:40;101777.03;;;1.45;81.28
21273;BME280;36726;52.328;10.552;2023-01-29T00:24:06;101780.53;;;1.46;81.05
21273;BME280;36726;52.328;10.552;2023-01-29T00:26:33;101777.94;;;1.46;80.96
21273;BME280;36726;52.328;10.552;2023-01-29T00:29:00;101777.13;;;1.47;80.95
21273;BME280;36726;52.328;10.552;2023-01-29T00:31:27;101769.31;;;1.47;81.25
21273;BME280;36726;52.328;10.552;2023-01-29T00:33:54;101765.91;;;1.48;81.29
21273;BME280;36726;52.328;10.552;2023-01-29T00:36:20;101762.06;;;1.43;80.96
21273;BME280;36726;52.328;10.552;2023-01-29T00:38:57;101761.66;;;1.37;81.04
21273;BME280;36726;52.328;10.552;2023-01-29T00:41:31;101758.53;;;1.29;81.04
21273;BME280;36726;52.328;10.552;2023-01-29T00:44:16;101748.59;;;1.24;81.34
21273;BME280;36726;52.328;10.552;2023-01-29T00:47:02;101752.22;;;1.26;81.62
21273;BME280;36726;52.328;10.552;2023-01-29T00:49:29;101750.38;;;1.25;81.49
21273;BME280;36726;52.328;10.552;2023-01-29T00:52:04;101759.22;;;1.27;81.69
21273;BME280;36726;52.328;10.552;2023-01-29T00:54:50;101756.03;;;1.31;81.55
21273;BME280;36726;52.328;10.552;2023-01-29T00:57:17;101753.53;;;1.32;81.68
21273;BME280;36726;52.328;10.552;2023-01-29T00:59:43;101759.66;;;1.33;81.60
21273;BME280;36726;52.328;10.552;2023-01-29T01:02:10;101765.88;;;1.35;81.73
21273;BME280;36726;52.328;10.552;2023-01-29T01:04:55;101755.53;;;1.36;81.94
21273;BME280;36726;52.328;10.552;2023-01-29T01:07:22;101751.34;;;1.38;81.75
21273;BME280;36726;52.328;10.552;2023-01-29T01:09:49;101743.72;;;1.41;81.80
21273;BME280;36726;52.328;10.552;2023-01-29T01:12:37;101741.22;;;1.43;81.64
21273;BME280;36726;52.328;10.552;2023-01-29T01:15:04;101748.25;;;1.44;81.59
21273;BME280;36726;52.328;10.552;2023-01-29T01:17:31;101751.25;;;1.37;81.05
21273;BME280;36726;52.328;10.552;2023-01-29T01:19:58;101752.84;;;1.35;81.47
21273;BME280;36726;52.328;10.552;2023-01-29T01:22:24;101742.59;;;1.38;81.57
21273;BME280;36726;52.328;10.552;2023-01-29T01:24:51;101747.81;;;1.38;81.36
21273;BME280;36726;52.328;10.552;2023-01-29T01:27:17;101738.31;;;1.38;81.35
21273;BME280;36726;52.328;10.552;2023-01-29T01:29:45;101740.00;;;1.38;81.57
21273;BME280;36726;52.328;10.552;2023-01-29T01:32:12;101727.78;;;1.37;81.14
21273;BME280;36726;52.328;10.552;2023-01-29T01:34:39;101720.66;;;1.34;81.31
21273;BME280;36726;52.328;10.552;2023-01-29T01:37:05;101718.75;;;1.32;81.42
21273;BME280;36726;52.328;10.552;2023-01-29T01:39:32;101713.91;;;1.25;81.42
21273;BME280;36726;52.328;10.552;2023-01-29T01:41:58;101710.81;;;1.17;81.77
21273;BME280;36726;52.328;10.552;2023-01-29T01:47:20;101714.47;;;1.08;82.05
21273;BME280;36726;52.328;10.552;2023-01-29T01:49:48;101711.06;;;1.08;81.80
21273;BME280;36726;52.328;10.552;2023-01-29T01:52:16;101710.47;;;1.13;81.62
21273;BME280;36726;52.328;10.552;2023-01-29T01:54:43;101695.19;;;1.17;81.78
21273;BME280;36726;52.328;10.552;2023-01-29T01:57:14;101700.56;;;1.20;81.75
21273;BME280;36726;52.328;10.552;2023-01-29T01:59:51;101694.56;;;1.21;82.23
21273;BME280;36726;52.328;10.552;2023-01-29T02:02:19;101698.06;;;1.22;82.04
21273;BME280;36726;52.328;10.552;2023-01-29T02:05:06;101701.69;;;1.24;82.34
21273;BME280;36726;52.328;10.552;2023-01-29T02:07:51;101708.69;;;1.25;82.32
21273;BME280;36726;52.328;10.552;2023-01-29T02:10:45;101709.59;;;1.25;82.24
21273;BME280;36726;52.328;10.552;2023-01-29T02:13:13;101721.03;;;1.27;82.17
21273;BME280;36726;52.328;10.552;2023-01-29T02:15:45;101719.34;;;1.28;81.86
21273;BME280;36726;52.328;10.552;2023-01-29T02:18:19;101723.06;;;1.31;82.18
21273;BME280;36726;52.328;10.552;2023-01-29T02:21:12;101725.84;;;1.34;82.19
21273;BME280;36726;52.328;10.552;2023-01-29T02:26:37;101714.75;;;1.37;81.71
21273;BME280;36726;52.328;10.552;2023-01-29T02:29:09;101719.97;;;1.37;81.63
21273;BME280;36726;52.328;10.552;2023-01-29T02:32:02;101727.78;;;1.37;81.54
21273;BME280;36726;52.328;10.552;2023-01-29T02:34:40;101725.75;;;1.33;81.63
21273;BME280;36726;52.328;10.552;2023-01-29T02:37:37;101733.47;;;1.31;81.76
21273;BME280;36726;52.328;10.552;2023-01-29T02:40:14;101716.84;;;1.29;81.50
21273;BME280;36726;52.328;10.552;2023-01-29T02:42:52;101727.16;;;1.28;81.84
21273;BME280;36726;52.328;10.552;2023-01-29T02:45:43;101741.88;;;1.27;81.99
21273;BME280;36726;52.328;10.552;2023-01-29T02:48:21;101739.09;;;1.24;81.97
21273;BME280;36726;52.328;10.552;2023-01-29T02:50:59;101747.78;;;1.25;82.19
21273;BME280;36726;52.328;10.552;2023-01-29T02:53:40;101745.31;;;1.26;81.91
21273;BME280;36726;52.328;10.552;2023-01-29T02:56:17;101746.09;;;1.25;82.39
21273;BME280;36726;52.328;10.552;2023-01-29T02:58:53;101747.00;;;1.26;82.35
21273;BME280;36726;52.328;10.552;2023-01-29T03:01:35;101743.59;;;1.27;82.10
21273;BME280;36726;52.328;10.552;2023-01-29T03:04:07;101742.56;;;1.25;82.42
21273;BME280;36726;52.328;10.552;2023-01-29T03:07:06;101746.91;;;1.24;82.77
21273;BME280;36726;52.328;10.552;2023-01-29T03:09:40;101739.75;;;1.22;83.00
21273;BME280;36726;52.328;10.552;2023-01-29T03:12:13;101741.59;;;1.23;82.51
21273;BME280;36726;52.328;10.552;2023-01-29T03:14:55;101737.06;;;1.20;82.87
21273;BME280;36726;52.328;10.552;2023-01-29T03:17:47;101737.97;;;1.21;83.05
21273;BME280;36726;52.328;10.552;2023-01-29T03:20:19;101730.25;;;1.22;82.88
21273;BME280;36726;52.328;10.552;2023-01-29T03:22:51;101720.03;;;1.25;83.04
21273;BME280;36726;52.328;10.552;2023-01-29T03:25:21;101720.13;;;1.27;83.96
21273;BME280;36726;52.328;10.552;2023-01-29T03:28:09;101720.03;;;1.25;85.00
21273;BME280;36726;52.328;10.552;2023-01-29T03:30:59;101727.84;;;1.25;85.37
21273;BME280;36726;52.328;10.552;2023-01-29T03:34:18;101726.72;;;1.22;85.33
21273;BME280;36726;52.328;10.552;2023-01-29T03:37:00;101714.53;;;1.21;85.93
21273;BME280;36726;52.328;10.552;2023-01-29T03:39:28;101732.16;;;1.25;85.30
21273;BME280;36726;52.328;10.552;2023-01-29T03:42:23;101726.16;;;1.26;85.54
21273;BME280;36726;52.328;10.552;2023-01-29T03:45:05;101719.25;;;1.26;85.21
21273;BME280;36726;52.328;10.552;2023-01-29T03:47:51;101715.72;;;1.26;85.05
21273;BME280;36726;52.328;10.552;2023-01-29T03:53:32;101704.50;;;1.27;85.33
21273;BME280;36726;52.328;10.552;2023-01-29T03:56:16;101700.28;;;1.29;85.99
21273;BME280;36726;52.328;10.552;2023-01-29T03:59:13;101695.31;;;1.32;86.11
21273;BME280;36726;52.328;10.552;2023-01-29T04:02:09;101691.88;;;1.33;86.24
21273;BME280;36726;52.328;10.552;2023-01-29T04:04:41;101688.47;;;1.34;86.61
21273;BME280;36726;52.328;10.552;2023-01-29T04:07:12;101678.75;;;1.31;86.80
21273;BME280;36726;52.328;10.552;2023-01-29T04:10:03;101679.94;;;1.23;87.22
21273;BME280;36726;52.328;10.552;2023-01-29T04:12:40;101675.69;;;1.12;87.53
21273;BME280;36726;52.328;10.552;2023-01-29T04:15:12;101675.31;;;1.06;87.58
21273;BME280;36726;52.328;10.552;2023-01-29T04:17:47;101667.16;;;1.01;88.03
21273;BME280;36726;52.328;10.552;2023-01-29T04:20:22;101659.97;;;0.97;88.22
21273;BME280;36726;52.328;10.552;2023-01-29T04:22:50;101650.22;;;0.95;88.13
21273;BME280;36726;52.328;10.552;2023-01-29T04:25:28;101651.00;;;0.94;88.30
21273;BME280;36726;52.328;10.552;2023-01-29T04:28:04;101643.91;;;0.91;88.32
21273;BME280;36726;52.328;10.552;2023-01-29T04:30:42;101653.41;;;0.91;88.37
21273;BME280;36726;52.328;10.552;2023-01-29T04:36:10;101644.59;;;0.89;88.08
21273;BME280;36726;52.328;10.552;2023-01-29T04:38:56;101644.91;;;0.93;87.85
21273;BME280;36726;52.328;10.552;2023-01-29T04:41:54;101639.22;;;0.99;88.09
21273;BME280;36726;52.328;10.552;2023-01-29T04:44:47;101631.59;;;1.02;87.77
21273;BME280;36726;52.328;10.552;2023-01-29T04:50:12;101613.38;;;1.02;87.39
21273;BME280;36726;52.328;10.552;2023-01-29T04:52:53;101609.16;;;1.04;87.07
21273;BME280;36726;52.328;10.552;2023-01-29T04:55:33;101604.88;;;1.04;86.85
21273;BME280;36726;52.328;10.552;2023-01-29T04:58:11;101595.41;;;1.06;86.58
21273;BME280;36726;52.328;10.552;2023-01-29T05:00:42;101598.94;;;1.07;86.68
21273;BME280;36726;52.328;10.552;2023-01-29T05:03:13;101598.03;;;1.06;86.44
21273;BME280;36726;52.328;10.552;2023-01-29T05:05:44;101590.34;;;1.08;86.17
21273;BME280;36726;52.328;10.552;2023-01-29T05:08:14;101588.59;;;1.08;86.13
21273;BME280;36726;52.328;10.552;2023-01-29T05:10:42;101584.41;;;1.11;86.25
21273;BME280;36726;52.328;10.552;2023-01-29T05:13:12;101583.63;;;1.12;85.78
21273;BME280;36726;52.328;10.552;2023-01-29T05:15:43;101587.09;;;1.12;86.21
21273;BME280;36726;52.328;10.552;2023-01-29T05:18:11;101588.75;;;1.10;85.94
21273;BME280;36726;52.328;10.552;2023-01-29T05:20:40;101584.22;;;1.08;85.76
21273;BME280;36726;52.328;10.552;2023-01-29T05:23:18;101580.59;;;1.05;85.79
21273;BME280;36726;52.328;10.552;2023-01-29T05:25:47;101584.63;;;1.00;86.07
21273;BME280;36726;52.328;10.552;2023-01-29T05:28:14;101580.09;;;0.98;86.46
21273;BME280;36726;52.328;10.552;2023-01-29T05:30:49;101580.91;;;0.97;86.40
21273;BME280;36726;52.328;10.552;2023-01-29T05:35:48;101572.56;;;0.89;86.64
21273;BME280;36726;52.328;10.552;2023-01-29T05:38:16;101568.75;;;0.84;86.67
21273;BME280;36726;52.328;10.552;2023-01-29T05:40:45;101572.63;;;0.78;86.72
21273;BME280;36726;52.328;10.552;2023-01-29T05:43:19;101585.16;;;0.70;86.89
21273;BME280;36726;52.328;10.552;2023-01-29T05:45:55;101597.75;;;0.64;86.89
21273;BME280;36726;52.328;10.552;2023-01-29T05:48:22;101608.56;;;0.57;87.12
21273;BME280;36726;52.328;10.552;2023-01-29T05:50:49;101595.31;;;0.54;87.26
21273;BME280;36726;52.328;10.552;2023-01-29T05:53:17;101596.13;;;0.53;87.68
21273;BME280;36726;52.328;10.552;2023-01-29T05:55:47;101597.63;;;0.50;87.77
21273;BME280;36726;52.328;10.552;2023-01-29T05:58:14;101601.81;;;0.48;87.51
21273;BME280;36726;52.328;10.552;2023-01-29T06:00:41;101611.31;;;0.47;88.04
21273;BME280;36726;52.328;10.552;2023-01-29T06:03:07;101613.72;;;0.44;88.35
21273;BME280;36726;52.328;10.552;2023-01-29T06:05:37;101619.00;;;0.46;87.85
21273;BME280;36726;52.328;10.552;2023-01-29T06:08:04;101633.25;;;0.51;88.43
21273;BME280;36726;52.328;10.552;2023-01-29T06:10:31;101643.41;;;0.59;88.27
21273;BME280;36726;52.328;10.552;2023-01-29T06:12:58;101649.81;;;0.64;88.06
21273;BME280;36726;52.328;10.552;2023-01-29T06:15:24;101649.44;;;0.71;88.53
21273;BME280;36726;52.328;10.552;2023-01-29T06:17:55;101646.47;;;0.78;87.79
21273;BME280;36726;52.328;10.552;2023-01-29T06:20:22;101639.66;;;0.80;87.61
21273;BME280;36726;52.328;10.552;2023-01-29T06:22:49;101645.06;;;0.83;87.66
21273;BME280;36726;52.328;10.552;2023-01-29T06:25:16;101645.50;;;0.89;87.54
21273;BME280;36726;52.328;10.552;2023-01-29T06:27:42;101639.59;;;0.92;87.60
21273;BME280;36726;52.328;10.552;2023-01-29T06:30:09;101632.66;;;0.92;87.40
21273;BME280;36726;52.328;10.552;2023-01-29T06:32:36;101629.56;;;0.98;87.56
21273;BME280;36726;52.328;10.552;2023-01-29T06:35:04;101622.09;;;1.02;87.39
21273;BME280;36726;52.328;10.552;2023-01-29T06:37:30;101607.66;;;1.08;87.30
21273;BME280;36726;52.328;10.552;2023-01-29T06:39:57;101608.19;;;1.15;87.48
21273;BME280;36726;52.328;10.552;2023-01-29T06:42:24;101613.56;;;1.18;87.26
21273;BME280;36726;52.328;10.552;2023-01-29T06:44:56;101607.78;;;1.22;87.05
21273;BME280;36726;52.328;10.552;2023-01-29T06:47:23;101606.47;;;1.29;87.09
21273;BME280;36726;52.328;10.552;2023-01-29T06:49:50;101598.25;;;1.36;86.76
21273;BME280;36726;52.328;10.552;2023-01-29T06:52:16;101615.91;;;1.40;86.28
21273;BME280;36726;52.328;10.552;2023-01-29T06:54:43;101617.59;;;1.39;86.42
21273;BME280;36726;52.328;10.552;2023-01-29T06:57:10;101612.50;;;1.41;86.14
21273;BME280;36726;52.328;10.552;2023-01-29T06:59:36;101609.06;;;1.42;85.85
21273;BME280;36726;52.328;10.552;2023-01-29T07:02:03;101621.09;;;1.40;85.55
21273;BME280;36726;52.328;10.552;2023-01-29T07:04:29;101627.03;;;1.37;85.39
21273;BME280;36726;52.328;10.552;2023-01-29T07:06:58;101623.53;;;1.37;85.82
21273;BME280;36726;52.328;10.552;2023-01-29T07:09:24;101622.50;;;1.35;85.63
21273;BME280;36726;52.328;10.552;2023-01-29T07:11:51;101616.50;;;1.36;85.25
21273;BME280;36726;52.328;10.552;2023-01-29T07:14:17;101627.91;;;1.38;85.17
21273;BME280;36726;52.328;10.552;2023-01-29T07:16:44;101640.84;;;1.36;84.83
21273;BME280;36726;52.328;10.552;2023-01-29T07:19:10;101654.72;;;1.35;84.71
21273;BME280;36726;52.328;10.552;2023-01-29T07:21:38;101675.56;;;1.35;84.79
21273;BME280;36726;52.328;10.552;2023-01-29T07:24:05;101653.78;;;1.35;84.94
21273;BME280;36726;52.328;10.552;2023-01-29T07:26:32;101646.88;;;1.35;85.10
21273;BME280;36726;52.328;10.552;2023-01-29T07:28:58;101648.78;;;1.38;85.56
21273;BME280;36726;52.328;10.552;2023-01-29T07:31:24;101639.66;;;1.44;85.89
21273;BME280;36726;52.328;10.552;2023-01-29T07:33:53;101633.97;;;1.50;85.57
21273;BME280;36726;52.328;10.552;2023-01-29T07:36:20;101636.16;;;1.57;85.83
21273;BME280;36726;52.328;10.552;2023-01-29T07:38:50;101626.09;;;1.63;84.68
21273;BME280;36726;52.328;10.552;2023-01-29T07:41:16;101619.19;;;1.63;84.50
21273;BME280;36726;52.328;10.552;2023-01-29T07:43:44;101623.91;;;1.69;85.04
21273;BME280;36726;52.328;10.552;2023-01-29T07:46:11;101624.41;;;1.76;84.92
21273;BME280;36726;52.328;10.552;2023-01-29T07:48:38;101610.75;;;1.80;84.36
21273;BME280;36726;52.328;10.552;2023-01-29T07:51:04;101611.84;;;1.84;83.90
21273;BME280;36726;52.328;10.552;2023-01-29T07:53:31;101614.66;;;1.87;83.98
21273;BME280;36726;52.328;10.552;2023-01-29T07:55:58;101609.84;;;1.93;84.36
21273;BME280;36726;52.328;10.552;2023-01-29T07:58:24;101601.38;;;1.97;83.68
21273;BME280;36726;52.328;10.552;2023-01-29T08:00:51;101599.69;;;1.97;82.76
21273;BME280;36726;52.328;10.552;2023-01-29T08:03:18;101587.34;;;1.95;82.46
21273;BME280;36726;52.328;10.552;2023-01-29T08:05:45;101591.84;;;1.97;83.06
21273;BME280;36726;52.328;10.552;2023-01-29T08:08:12;101587.63;;;1.99;82.44
21273;BME280;36726;52.328;10.552;2023-01-29T08:10:40;101578.19;;;2.01;83.12
21273;BME280;36726;52.328;10.552;2023-01-29T08:13:07;101589.41;;;2.00;82.63
21273;BME280;36726;52.328;10.552;2023-01-29T08:15:34;101585.31;;;2.04;82.73
21273;BME280;36726;52.328;10.552;2023-01-29T08:18:04;101590.91;;;2.10;82.83
21273;BME280;36726;52.328;10.552;2023-01-29T08:20:30;101592.72;;;2.11;82.45
21273;BME280;36726;52.328;10.552;2023-01-29T08:22:58;101583.91;;;2.09;81.92
21273;BME280;36726;52.328;10.552;2023-01-29T08:25:25;101579.78;;;2.13;82.98
21273;BME280;36726;52.328;10.552;2023-01-29T08:27:53;101583.47;;;2.16;82.39
21273;BME280;36726;52.328;10.552;2023-01-29T08:30:20;101578.50;;;2.21;82.73
21273;BME280;36726;52.328;10.552;2023-01-29T08:32:47;101581.22;;;2.22;82.39
21273;BME280;36726;52.328;10.552;2023-01-29T08:35:13;101581.22;;;2.22;81.82
21273;BME280;36726;52.328;10.552;2023-01-29T08:37:40;101581.03;;;2.19;81.24
21273;BME280;36726;52.328;10.552;2023-01-29T08:40:07;101585.25;;;2.17;81.14
21273;BME280;36726;52.328;10.552;2023-01-29T08:42:36;101582.47;;;2.14;81.55
21273;BME280;36726;52.328;10.552;2023-01-29T08:45:02;101584.38;;;2.17;81.77
21273;BME280;36726;52.328;10.552;2023-01-29T08:47:29;101585.25;;;2.17;81.68
21273;BME280;36726;52.328;10.552;2023-01-29T08:49:56;101583.72;;;2.21;81.85
21273;BME280;36726;52.328;10.552;2023-01-29T08:52:23;101590.88;;;2.23;81.46
21273;BME280;36726;52.328;10.552;2023-01-29T08:54:51;101588.66;;;2.29;81.90
21273;BME280;36726;52.328;10.552;2023-01-29T08:57:17;101586.31;;;2.34;81.81
21273;BME280;36726;52.328;10.552;2023-01-29T08:59:44;101577.69;;;2.35;81.63
21273;BME280;36726;52.328;10.552;2023-01-29T09:02:10;101575.16;;;2.36;81.56
21273;BME280;36726;52.328;10.552;2023-01-29T09:04:37;101564.88;;;2.39;81.67
21273;BME280;36726;52.328;10.552;2023-01-29T09:07:03;101558.84;;;2.40;81.56
21273;BME280;36726;52.328;10.552;2023-01-29T09:09:30;101551.22;;;2.43;82.12
21273;BME280;36726;52.328;10.552;2023-01-29T09:11:57;101547.78;;;2.44;82.44
21273;BME280;36726;52.328;10.552;2023-01-29T09:14:23;101548.69;;;2.45;82.99
21273;BME280;36726;52.328;10.552;2023-01-29T09:16:50;101548.63;;;2.43;83.19
21273;BME280;36726;52.328;10.552;2023-01-29T09:19:16;101542.56;;;2.44;83.26
21273;BME280;36726;52.328;10.552;2023-01-29T09:21:43;101535.66;;;2.45;83.25
21273;BME280;36726;52.328;10.552;2023-01-29T09:24:09;101536.91;;;2.51;83.28
21273;BME280;36726;52.328;10.552;2023-01-29T09:26:36;101530.34;;;2.58;83.30
21273;BME280;36726;52.328;10.552;2023-01-29T09:29:05;101543.41;;;2.58;83.12
21273;BME280;36726;52.328;10.552;2023-01-29T09:31:31;101538.09;;;2.56;82.89
21273;BME280;36726;52.328;10.552;2023-01-29T09:33:58;101530.16;;;2.55;82.83
21273;BME280;36726;52.328;10.552;2023-01-29T09:36:25;101524.13;;;2.56;83.04
21273;BME280;36726;52.328;10.552;2023-01-29T09:38:52;101524.59;;;2.63;82.95
21273;BME280;36726;52.328;10.552;2023-01-29T09:44:27;101522.69;;;2.61;82.84
21273;BME280;36726;52.328;10.552;2023-01-29T09:46:56;101530.44;;;2.59;82.87
21273;BME280;36726;52.328;10.552;2023-01-29T09:49:28;101535.56;;;2.58;82.96
21273;BME280;36726;52.328;10.552;2023-01-29T09:52:22;101531.06;;;2.55;83.31
21273;BME280;36726;52.328;10.552;2023-01-29T09:54:58;101522.31;;;2.55;83.21
21273;BME280;36726;52.328;10.552;2023-01-29T09:57:33;101522.59;;;2.59;83.18
21273;BME280;36726;52.328;10.552;2023-01-29T10:00:01;101522.97;;;2.65;83.50
21273;BME280;36726;52.328;10.552;2023-01-29T10:05:29;101527.47;;;2.82;83.12
21273;BME280;36726;52.328;10.552;2023-01-29T10:08:11;101519.25;;;2.91;83.11
21273;BME280;36726;52.328;10.552;2023-01-29T10:11:04;101512.84;;;3.00;83.18
21273;BME280;36726;52.328;10.552;2023-01-29T10:19:36;101503.72;;;3.23;82.55
21273;BME280;36726;52.328;10.552;2023-01-29T10:25:05;101511.34;;;3.35;81.66
21273;BME280;36726;52.328;10.552;2023-01-29T10:27:38;101506.28;;;3.38;81.57
21273;BME280;36726;52.328;10.552;2023-01-29T10:30:07;101505.41;;;3.37;80.87
21273;BME280;36726;52.328;10.552;2023-01-29T10:32:43;101500.16;;;3.37;80.93
21273;BME280;36726;52.328;10.552;2023-01-29T10:35:19;101494.75;;;3.34;80.44
21273;BME280;36726;52.328;10.552;2023-01-29T10:37:47;101499.91;;;3.33;80.56
21273;BME280;36726;52.328;10.552;2023-01-29T10:40:19;101482.34;;;3.30;80.61
21273;BME280;36726;52.328;10.552;2023-01-29T10:42:57;101492.03;;;3.33;80.61
21273;BME280;36726;52.328;10.552;2023-01-29T10:51:35;101495.13;;;3.26;80.55
21273;BME280;36726;52.328;10.552;2023-01-29T10:54:20;101492.53;;;3.26;80.91
21273;BME280;36726;52.328;10.552;2023-01-29T10:56:54;101480.53;;;3.29;81.37
21273;BME280;36726;52.328;10.552;2023-01-29T10:59:48;101470.41;;;3.35;81.07
21273;BME280;36726;52.328;10.552;2023-01-29T11:02:19;101467.31;;;3.42;81.01
21273;BME280;36726;52.328;10.552;2023-01-29T11:04:47;101458.19;;;3.50;81.33
21273;BME280;36726;52.328;10.552;2023-01-29T11:07:17;101454.09;;;3.55;80.41
21273;BME280;36726;52.328;10.552;2023-01-29T11:09:56;101450.59;;;3.55;80.20
21273;BME280;36726;52.328;10.552;2023-01-29T11:12:28;101451.31;;;3.52;80.11
21273;BME280;36726;52.328;10.552;2023-01-29T11:15:06;101447.06;;;3.54;80.21
21273;BME280;36726;52.328;10.552;2023-01-29T11:18:00;101432.63;;;3.61;80.21
21273;BME280;36726;52.328;10.552;2023-01-29T11:20:28;101435.38;;;3.64;80.02
21273;BME280;36726;52.328;10.552;2023-01-29T11:22:55;101431.88;;;3.63;80.11
21273;BME280;36726;52.328;10.552;2023-01-29T11:25:23;101437.09;;;3.63;79.40
21273;BME280;36726;52.328;10.552;2023-01-29T11:27:55;101433.41;;;3.60;79.11
21273;BME280;36726;52.328;10.552;2023-01-29T11:30:25;101429.81;;;3.58;79.53
21273;BME280;36726;52.328;10.552;2023-01-29T11:33:04;101428.25;;;3.61;79.98
21273;BME280;36726;52.328;10.552;2023-01-29T11:35:33;101421.66;;;3.68;80.20
21273;BME280;36726;52.328;10.552;2023-01-29T11:38:23;101414.78;;;3.70;80.03
21273;BME280;36726;52.328;10.552;2023-01-29T11:41:04;101413.97;;;3.71;79.64
21273;BME280;36726;52.328;10.552;2023-01-29T11:43:32;101406.94;;;3.70;79.65
21273;BME280;36726;52.328;10.552;2023-01-29T11:46:10;101394.94;;;3.73;79.66
21273;BME280;36726;52.328;10.552;2023-01-29T11:48:45;101400.31;;;3.76;79.50
21273;BME280;36726;52.328;10.552;2023-01-29T11:51:26;101387.47;;;3.81;79.65
21273;BME280;36726;52.328;10.552;2023-01-29T11:54:01;101381.41;;;3.82;78.71
21273;BME280;36726;52.328;10.552;2023-01-29T11:56:33;101381.41;;;3.82;79.11
21273;BME280;36726;52.328;10.552;2023-01-29T11:59:04;101376.03;;;3.79;77.91
21273;BME280;36726;52.328;10.552;2023-01-29T12:01:37;101370.63;;;3.76;77.72
21273;BME280;36726;52.328;10.552;2023-01-29T12:04:17;101384.53;;;3.75;78.76
21273;BME280;36726;52.328;10.552;2023-01-29T12:06:46;101375.06;;;3.77;78.83
21273;BME280;36726;52.328;10.552;2023-01-29T12:09:22;101372.59;;;3.80;79.01
21273;BME280;36726;52.328;10.552;2023-01-29T12:11:49;101369.63;;;3.74;78.28
21273;BME280;36726;52.328;10.552;2023-01-29T12:14:26;101374.88;;;3.74;78.65
21273;BME280;36726;52.328;10.552;2023-01-29T12:17:06;101372.44;;;3.77;79.11
21273;BME280;36726;52.328;10.552;2023-01-29T12:19:51;101368.19;;;3.79;78.77
21273;BME280;36726;52.328;10.552;2023-01-29T12:22:48;101362.94;;;3.79;78.91
21273;BME280;36726;52.328;10.552;2023-01-29T12:25:22;101353.28;;;3.78;77.62
21273;BME280;36726;52.328;10.552;2023-01-29T12:28:13;101349.88;;;3.79;78.25
21273;BME280;36726;52.328;10.552;2023-01-29T12:31:18;101349.88;;;3.79;77.90
21273;BME280;36726;52.328;10.552;2023-01-29T12:33:58;101347.41;;;3.82;78.60
21273;BME280;36726;52.328;10.552;2023-01-29T12:39:03;101335.88;;;3.78;78.50
21273;BME280;36726;52.328;10.552;2023-01-29T12:44:15;101338.91;;;3.86;78.11
21273;BME280;36726;52.328;10.552;2023-01-29T12:46:48;101343.16;;;3.84;77.70
21273;BME280;36726;52.328;10.552;2023-01-29T12:49:22;101335.31;;;3.84;77.15
21273;BME280;36726;52.328;10.552;2023-01-29T12:52:17;101338.56;;;3.80;77.30
21273;BME280;36726;52.328;10.552;2023-01-29T12:57:46;101321.88;;;3.78;77.54
21273;BME280;36726;52.328;10.552;2023-01-29T13:00:19;101315.84;;;3.79;77.41
21273;BME280;36726;52.328;10.552;2023-01-29T13:05:58;101319.72;;;3.69;77.71
21273;BME280;36726;52.328;10.552;2023-01-29T13:08:30;101323.81;;;3.64;76.96
21273;BME280;36726;52.328;10.552;2023-01-29T13:11:03;101333.03;;;3.58;77.46
21273;BME280;36726;52.328;10.552;2023-01-29T13:16:24;101317.75;;;3.49;77.64
21273;BME280;36726;52.328;10.552;2023-01-29T13:19:19;101314.25;;;3.49;77.71
21273;BME280;36726;52.328;10.552;2023-01-29T13:21:50;101299.38;;;3.48;77.92
21273;BME280;36726;52.328;10.552;2023-01-29T13:24:21;101299.53;;;3.51;77.74
21273;BME280;36726;52.328;10.552;2023-01-29T13:26:48;101294.47;;;3.54;78.13
21273;BME280;36726;52.328;10.552;2023-01-29T13:29:22;101280.72;;;3.58;78.04
21273;BME280;36726;52.328;10.552;2023-01-29T13:31:50;101283.44;;;3.59;77.54
21273;BME280;36726;52.328;10.552;2023-01-29T13:34:24;101265.03;;;3.58;77.50
21273;BME280;36726;52.328;10.552;2023-01-29T13:36:56;101266.00;;;3.60;78.26
21273;BME280;36726;52.328;10.552;2023-01-29T13:41:54;101260.25;;;3.67;77.84
21273;BME280;36726;52.328;10.552;2023-01-29T13:44:31;101256.66;;;3.65;77.22
21273;BME280;36726;52.328;10.552;2023-01-29T13:47:03;101253.25;;;3.66;77.27
21273;BME280;36726;52.328;10.552;2023-01-29T13:49:38;101247.03;;;3.64;77.37
21273;BME280;36726;52.328;10.552;2023-01-29T13:52:36;101240.03;;;3.63;77.34
21273;BME280;36726;52.328;10.552;2023-01-29T13:55:22;101247.69;;;3.60;76.51
21273;BME280;36726;52.328;10.552;2023-01-29T13:57:53;101238.00;;;3.57;77.59
21273;BME280;36726;52.328;10.552;2023-01-29T14:08:05;101217.69;;;3.69;76.95
21273;BME280;36726;52.328;10.552;2023-01-29T14:10:33;101219.38;;;3.69;76.84
21273;BME280;36726;52.328;10.552;2023-01-29T14:15:32;101212.38;;;3.68;76.90
21273;BME280;36726;52.328;10.552;2023-01-29T14:20:36;101210.63;;;3.68;77.14
21273;BME280;36726;52.328;10.552;2023-01-29T14:25:54;101203.03;;;3.73;77.06
21273;BME280;36726;52.328;10.552;2023-01-29T14:28:23;101208.19;;;3.71;76.57
21273;BME280;36726;52.328;10.552;2023-01-29T14:30:52;101199.28;;;3.68;77.14